sensor_id;sensor_type;location;lat;lon;timestamp;pressure;altitude;pressure_sealevel;temperature;humidity
54808;BME280;40708;50.364;7.550;2023-03-01T00:00:50;101715.44;;;-0.79;100.00
54808;BME280;40708;50.364;7.550;2023-03-01T00:03:15;101712.63;;;-0.82;100.00
54808;BME280;40708;50.364;7.550;2023-03-01T00:05:45;101706.22;;;-0.74;100.00
54808;BME280;40708;50.364;7.550;2023-03-01T00:08:10;101711.91;;;-0.80;100.00
54808;BME280;40708;50.364;7.550;2023-03-01T00:10:36;101708.13;;;-0.85;100.00
54808;BME280;40708;50.364;7.550;2023-03-01T00:13:01;101716.72;;;-0.99;100.00
54808;BME280;40708;50.364;7.550;2023-03-01T00:15:26;101714.91;;;-1.00;100.00
54808;BME280;40708;50.364;7.550;2023-03-01T00:17:52;101706.19;;;-1.00;100.00
54808;BME280;40708;50.364;7.550;2023-03-01T00:20:17;101709.53;;;-0.77;100.00
54808;BME280;40708;50.364;7.550;2023-03-01T00:22:42;101711.72;;;-0.70;100.00
54808;BME280;40708;50.364;7.550;2023-03-01T00:25:08;101716.00;;;-0.70;100.00
54808;BME280;40708;50.364;7.550;2023-03-01T00:27:34;101716.22;;;-0.80;100.00
54808;BME280;40708;50.364;7.550;2023-03-01T00:29:59;101721.22;;;-0.70;100.00
54808;BME280;40708;50.364;7.550;2023-03-01T00:32:24;101716.91;;;-0.70;100.00
54808;BME280;40708;50.364;7.550;2023-03-01T00:34:50;101705.69;;;-0.55;100.00
54808;BME280;40708;50.364;7.550;2023-03-01T00:37:21;101705.59;;;-0.44;100.00
54808;BME280;40708;50.364;7.550;2023-03-01T00:39:47;101706.28;;;-0.33;100.00
54808;BME280;40708;50.364;7.550;2023-03-01T00:42:12;101709.63;;;-0.21;100.00
54808;BME280;40708;50.364;7.550;2023-03-01T00:44:37;101710.03;;;-0.15;100.00
54808;BME280;40708;50.364;7.550;2023-03-01T00:47:03;101702.84;;;-0.19;100.00
54808;BME280;40708;50.364;7.550;2023-03-01T00:49:28;101709.75;;;-0.20;100.00
54808;BME280;40708;50.364;7.550;2023-03-01T00:51:53;101704.34;;;-0.23;100.00
54808;BME280;40708;50.364;7.550;2023-03-01T00:54:19;101710.47;;;-0.35;100.00
54808;BME280;40708;50.364;7.550;2023-03-01T00:56:44;101711.31;;;-0.49;100.00
54808;BME280;40708;50.364;7.550;2023-03-01T00:59:09;101706.41;;;-0.58;100.00
54808;BME280;40708;50.364;7.550;2023-03-01T01:01:34;101700.88;;;-0.76;100.00
54808;BME280;40708;50.364;7.550;2023-03-01T01:04:12;101697.69;;;-0.72;100.00
54808;BME280;40708;50.364;7.550;2023-03-01T01:06:41;101707.63;;;-0.79;100.00
54808;BME280;40708;50.364;7.550;2023-03-01T01:09:11;101698.78;;;-0.94;100.00
54808;BME280;40708;50.364;7.550;2023-03-01T01:11:42;101704.78;;;-1.08;100.00
54808;BME280;40708;50.364;7.550;2023-03-01T01:14:08;101695.16;;;-1.23;100.00
54808;BME280;40708;50.364;7.550;2023-03-01T01:16:33;101687.94;;;-1.27;100.00
54808;BME280;40708;50.364;7.550;2023-03-01T01:18:59;101697.34;;;-1.29;100.00
54808;BME280;40708;50.364;7.550;2023-03-01T01:21:25;101695.66;;;-1.28;100.00
54808;BME280;40708;50.364;7.550;2023-03-01T01:23:50;101689.84;;;-1.11;100.00
54808;BME280;40708;50.364;7.550;2023-03-01T01:26:23;101688.28;;;-0.96;100.00
54808;BME280;40708;50.364;7.550;2023-03-01T01:28:50;101692.78;;;-0.93;100.00
54808;BME280;40708;50.364;7.550;2023-03-01T01:31:16;101686.88;;;-0.91;100.00
54808;BME280;40708;50.364;7.550;2023-03-01T01:33:42;101690.38;;;-0.90;100.00
54808;BME280;40708;50.364;7.550;2023-03-01T01:36:08;101684.34;;;-0.89;100.00
54808;BME280;40708;50.364;7.550;2023-03-01T01:38:35;101687.56;;;-0.93;100.00
54808;BME280;40708;50.364;7.550;2023-03-01T01:41:00;101687.06;;;-1.01;100.00
54808;BME280;40708;50.364;7.550;2023-03-01T01:43:29;101687.25;;;-1.11;100.00
54808;BME280;40708;50.364;7.550;2023-03-01T01:46:06;101690.25;;;-1.18;100.00
54808;BME280;40708;50.364;7.550;2023-03-01T01:48:41;101678.22;;;-1.29;100.00
54808;BME280;40708;50.364;7.550;2023-03-01T01:51:13;101682.72;;;-1.27;100.00
54808;BME280;40708;50.364;7.550;2023-03-01T01:53:44;101681.31;;;-1.22;100.00
54808;BME280;40708;50.364;7.550;2023-03-01T01:56:12;101680.34;;;-1.24;100.00
54808;BME280;40708;50.364;7.550;2023-03-01T01:58:40;101685.03;;;-1.31;100.00
54808;BME280;40708;50.364;7.550;2023-03-01T02:01:07;101682.91;;;-1.37;100.00
54808;BME280;40708;50.364;7.550;2023-03-01T02:03:33;101676.59;;;-1.40;100.00
54808;BME280;40708;50.364;7.550;2023-03-01T02:06:22;101668.97;;;-1.50;100.00
54808;BME280;40708;50.364;7.550;2023-03-01T02:08:50;101666.34;;;-1.63;100.00
54808;BME280;40708;50.364;7.550;2023-03-01T02:11:17;101668.25;;;-1.61;100.00
54808;BME280;40708;50.364;7.550;2023-03-01T02:13:42;101665.88;;;-1.58;100.00
54808;BME280;40708;50.364;7.550;2023-03-01T02:16:10;101664.47;;;-1.53;100.00
54808;BME280;40708;50.364;7.550;2023-03-01T02:18:37;101663.44;;;-1.55;100.00
54808;BME280;40708;50.364;7.550;2023-03-01T02:21:30;101663.03;;;-1.61;100.00
54808;BME280;40708;50.364;7.550;2023-03-01T02:23:53;101657.03;;;-1.60;100.00
54808;BME280;40708;50.364;7.550;2023-03-01T02:26:25;101656.97;;;-1.48;100.00
54808;BME280;40708;50.364;7.550;2023-03-01T02:28:55;101655.69;;;-1.42;100.00
54808;BME280;40708;50.364;7.550;2023-03-01T02:31:21;101653.72;;;-1.57;100.00
54808;BME280;40708;50.364;7.550;2023-03-01T02:34:06;101657.88;;;-1.86;100.00
54808;BME280;40708;50.364;7.550;2023-03-01T02:36:35;101655.25;;;-1.86;100.00
54808;BME280;40708;50.364;7.550;2023-03-01T02:39:04;101652.69;;;-1.72;100.00
54808;BME280;40708;50.364;7.550;2023-03-01T02:41:35;101650.19;;;-1.71;100.00
54808;BME280;40708;50.364;7.550;2023-03-01T02:44:01;101648.97;;;-1.76;100.00
54808;BME280;40708;50.364;7.550;2023-03-01T02:46:26;101648.97;;;-1.76;100.00
54808;BME280;40708;50.364;7.550;2023-03-01T02:48:55;101647.28;;;-1.75;100.00
54808;BME280;40708;50.364;7.550;2023-03-01T02:51:34;101646.97;;;-1.80;100.00
54808;BME280;40708;50.364;7.550;2023-03-01T02:54:27;101639.72;;;-1.97;100.00
54808;BME280;40708;50.364;7.550;2023-03-01T02:56:54;101643.09;;;-1.98;100.00
54808;BME280;40708;50.364;7.550;2023-03-01T02:59:23;101635.84;;;-1.91;100.00
54808;BME280;40708;50.364;7.550;2023-03-01T03:01:49;101632.34;;;-1.91;100.00
54808;BME280;40708;50.364;7.550;2023-03-01T03:04:17;101630.22;;;-1.97;100.00
54808;BME280;40708;50.364;7.550;2023-03-01T03:06:44;101629.81;;;-1.90;100.00
54808;BME280;40708;50.364;7.550;2023-03-01T03:09:10;101620.63;;;-1.85;100.00
54808;BME280;40708;50.364;7.550;2023-03-01T03:11:35;101624.84;;;-1.87;100.00
54808;BME280;40708;50.364;7.550;2023-03-01T03:14:02;101620.97;;;-2.05;100.00
54808;BME280;40708;50.364;7.550;2023-03-01T03:16:27;101625.06;;;-2.08;100.00
54808;BME280;40708;50.364;7.550;2023-03-01T03:18:55;101627.78;;;-2.07;100.00
54808;BME280;40708;50.364;7.550;2023-03-01T03:21:29;101635.09;;;-2.01;100.00
54808;BME280;40708;50.364;7.550;2023-03-01T03:23:55;101625.28;;;-2.05;100.00
54808;BME280;40708;50.364;7.550;2023-03-01T03:26:20;101622.47;;;-2.08;100.00
54808;BME280;40708;50.364;7.550;2023-03-01T03:28:45;101621.78;;;-2.06;100.00
54808;BME280;40708;50.364;7.550;2023-03-01T03:31:11;101611.72;;;-2.01;100.00
54808;BME280;40708;50.364;7.550;2023-03-01T03:33:37;101616.22;;;-1.99;100.00
54808;BME280;40708;50.364;7.550;2023-03-01T03:36:03;101607.50;;;-1.99;100.00
54808;BME280;40708;50.364;7.550;2023-03-01T03:38:28;101615.09;;;-2.02;100.00
54808;BME280;40708;50.364;7.550;2023-03-01T03:41:02;101609.38;;;-2.10;100.00
54808;BME280;40708;50.364;7.550;2023-03-01T03:43:28;101604.03;;;-2.11;100.00
54808;BME280;40708;50.364;7.550;2023-03-01T03:45:54;101599.22;;;-2.18;100.00
54808;BME280;40708;50.364;7.550;2023-03-01T03:48:20;101600.22;;;-2.16;100.00
54808;BME280;40708;50.364;7.550;2023-03-01T03:50:50;101589.34;;;-2.11;100.00
54808;BME280;40708;50.364;7.550;2023-03-01T03:53:16;101584.84;;;-2.13;100.00
54808;BME280;40708;50.364;7.550;2023-03-01T03:55:42;101576.97;;;-2.15;100.00
54808;BME280;40708;50.364;7.550;2023-03-01T03:58:10;101575.34;;;-2.13;100.00
54808;BME280;40708;50.364;7.550;2023-03-01T04:00:39;101575.41;;;-2.24;100.00
54808;BME280;40708;50.364;7.550;2023-03-01T04:03:04;101571.69;;;-2.28;100.00
54808;BME280;40708;50.364;7.550;2023-03-01T04:05:30;101570.38;;;-2.34;100.00
54808;BME280;40708;50.364;7.550;2023-03-01T04:07:56;101574.03;;;-2.44;100.00
54808;BME280;40708;50.364;7.550;2023-03-01T04:10:30;101578.38;;;-2.56;100.00
54808;BME280;40708;50.364;7.550;2023-03-01T04:12:55;101572.19;;;-2.58;100.00
54808;BME280;40708;50.364;7.550;2023-03-01T04:15:24;101585.03;;;-2.60;100.00
54808;BME280;40708;50.364;7.550;2023-03-01T04:17:51;101587.09;;;-2.56;100.00
54808;BME280;40708;50.364;7.550;2023-03-01T04:20:22;101586.72;;;-2.60;100.00
54808;BME280;40708;50.364;7.550;2023-03-01T04:22:55;101585.06;;;-2.71;100.00
54808;BME280;40708;50.364;7.550;2023-03-01T04:25:22;101582.94;;;-2.77;100.00
54808;BME280;40708;50.364;7.550;2023-03-01T04:27:48;101584.00;;;-2.86;100.00
54808;BME280;40708;50.364;7.550;2023-03-01T04:30:13;101574.75;;;-2.94;100.00
54808;BME280;40708;50.364;7.550;2023-03-01T04:32:38;101590.78;;;-3.00;100.00
54808;BME280;40708;50.364;7.550;2023-03-01T04:35:04;101595.84;;;-3.02;100.00
54808;BME280;40708;50.364;7.550;2023-03-01T04:37:29;101593.72;;;-3.07;100.00
54808;BME280;40708;50.364;7.550;2023-03-01T04:39:54;101599.13;;;-3.04;100.00
54808;BME280;40708;50.364;7.550;2023-03-01T04:42:20;101595.53;;;-3.06;100.00
54808;BME280;40708;50.364;7.550;2023-03-01T04:44:45;101602.53;;;-3.05;100.00
54808;BME280;40708;50.364;7.550;2023-03-01T04:47:11;101610.19;;;-3.07;100.00
54808;BME280;40708;50.364;7.550;2023-03-01T04:49:37;101602.53;;;-3.05;100.00
54808;BME280;40708;50.364;7.550;2023-03-01T04:52:03;101601.31;;;-3.10;100.00
54808;BME280;40708;50.364;7.550;2023-03-01T04:54:33;101604.38;;;-3.16;100.00
54808;BME280;40708;50.364;7.550;2023-03-01T04:56:59;101609.97;;;-3.10;100.00
54808;BME280;40708;50.364;7.550;2023-03-01T04:59:25;101603.22;;;-3.08;100.00
54808;BME280;40708;50.364;7.550;2023-03-01T05:01:52;101609.44;;;-3.06;100.00
54808;BME280;40708;50.364;7.550;2023-03-01T05:04:17;101612.34;;;-3.01;100.00
54808;BME280;40708;50.364;7.550;2023-03-01T05:06:42;101608.50;;;-2.94;100.00
54808;BME280;40708;50.364;7.550;2023-03-01T05:09:08;101618.66;;;-2.97;100.00
54808;BME280;40708;50.364;7.550;2023-03-01T05:11:33;101612.56;;;-3.10;100.00
54808;BME280;40708;50.364;7.550;2023-03-01T05:14:02;101621.03;;;-3.12;100.00
54808;BME280;40708;50.364;7.550;2023-03-01T05:16:27;101608.75;;;-3.15;100.00
54808;BME280;40708;50.364;7.550;2023-03-01T05:18:53;101611.25;;;-3.05;100.00
54808;BME280;40708;50.364;7.550;2023-03-01T05:21:21;101612.94;;;-3.05;100.00
54808;BME280;40708;50.364;7.550;2023-03-01T05:23:46;101610.19;;;-2.95;100.00
54808;BME280;40708;50.364;7.550;2023-03-01T05:26:12;101606.38;;;-3.12;100.00
54808;BME280;40708;50.364;7.550;2023-03-01T05:28:38;101606.38;;;-3.00;100.00
54808;BME280;40708;50.364;7.550;2023-03-01T05:31:03;101600.41;;;-2.99;100.00
54808;BME280;40708;50.364;7.550;2023-03-01T05:33:35;101596.53;;;-3.04;100.00
54808;BME280;40708;50.364;7.550;2023-03-01T05:36:01;101606.06;;;-3.05;100.00
54808;BME280;40708;50.364;7.550;2023-03-01T05:38:26;101601.41;;;-3.09;100.00
54808;BME280;40708;50.364;7.550;2023-03-01T05:40:51;101605.91;;;-3.18;100.00
54808;BME280;40708;50.364;7.550;2023-03-01T05:43:17;101606.81;;;-3.17;100.00
54808;BME280;40708;50.364;7.550;2023-03-01T05:45:43;101607.50;;;-3.20;100.00
54808;BME280;40708;50.364;7.550;2023-03-01T05:48:10;101605.00;;;-3.07;100.00
54808;BME280;40708;50.364;7.550;2023-03-01T05:50:38;101609.53;;;-3.04;100.00
54808;BME280;40708;50.364;7.550;2023-03-01T05:53:16;101603.31;;;-3.18;100.00
54808;BME280;40708;50.364;7.550;2023-03-01T05:55:42;101599.28;;;-3.14;100.00
54808;BME280;40708;50.364;7.550;2023-03-01T05:58:17;101593.41;;;-3.12;100.00
54808;BME280;40708;50.364;7.550;2023-03-01T06:00:45;101602.22;;;-3.21;100.00
54808;BME280;40708;50.364;7.550;2023-03-01T06:03:12;101593.84;;;-3.29;100.00
54808;BME280;40708;50.364;7.550;2023-03-01T06:05:39;101596.34;;;-3.42;100.00
54808;BME280;40708;50.364;7.550;2023-03-01T06:08:04;101589.16;;;-3.34;100.00
54808;BME280;40708;50.364;7.550;2023-03-01T06:10:29;101585.97;;;-3.30;100.00
54808;BME280;40708;50.364;7.550;2023-03-01T06:12:55;101590.84;;;-3.35;100.00
54808;BME280;40708;50.364;7.550;2023-03-01T06:15:21;101592.97;;;-3.29;100.00
54808;BME280;40708;50.364;7.550;2023-03-01T06:17:47;101581.88;;;-3.15;100.00
54808;BME280;40708;50.364;7.550;2023-03-01T06:20:21;101578.38;;;-3.04;100.00
54808;BME280;40708;50.364;7.550;2023-03-01T06:22:47;101579.72;;;-2.97;100.00
54808;BME280;40708;50.364;7.550;2023-03-01T06:25:16;101586.75;;;-3.08;100.00
54808;BME280;40708;50.364;7.550;2023-03-01T06:27:42;101579.78;;;-3.21;100.00
54808;BME280;40708;50.364;7.550;2023-03-01T06:30:09;101577.97;;;-3.22;100.00
54808;BME280;40708;50.364;7.550;2023-03-01T06:32:36;101579.19;;;-3.17;100.00
54808;BME280;40708;50.364;7.550;2023-03-01T06:35:02;101580.78;;;-3.19;100.00
54808;BME280;40708;50.364;7.550;2023-03-01T06:37:28;101579.09;;;-3.18;100.00
54808;BME280;40708;50.364;7.550;2023-03-01T06:39:53;101584.69;;;-3.12;100.00
54808;BME280;40708;50.364;7.550;2023-03-01T06:42:18;101587.19;;;-3.02;100.00
54808;BME280;40708;50.364;7.550;2023-03-01T06:44:44;101595.75;;;-3.03;100.00
54808;BME280;40708;50.364;7.550;2023-03-01T06:47:09;101600.03;;;-3.04;100.00
54808;BME280;40708;50.364;7.550;2023-03-01T06:49:34;101589.63;;;-2.80;100.00
54808;BME280;40708;50.364;7.550;2023-03-01T06:52:00;101596.41;;;-2.46;100.00
54808;BME280;40708;50.364;7.550;2023-03-01T06:54:25;101594.13;;;-2.17;100.00
54808;BME280;40708;50.364;7.550;2023-03-01T06:56:50;101587.50;;;-1.87;100.00
54808;BME280;40708;50.364;7.550;2023-03-01T06:59:16;101592.78;;;-1.74;100.00
54808;BME280;40708;50.364;7.550;2023-03-01T07:01:42;101588.88;;;-1.67;100.00
54808;BME280;40708;50.364;7.550;2023-03-01T07:04:08;101584.69;;;-1.90;100.00
54808;BME280;40708;50.364;7.550;2023-03-01T07:06:34;101592.81;;;-1.99;100.00
54808;BME280;40708;50.364;7.550;2023-03-01T07:08:59;101589.38;;;-1.98;100.00
54808;BME280;40708;50.364;7.550;2023-03-01T07:11:24;101591.16;;;-2.10;100.00
54808;BME280;40708;50.364;7.550;2023-03-01T07:13:50;101589.56;;;-2.08;100.00
54808;BME280;40708;50.364;7.550;2023-03-01T07:16:15;101580.06;;;-2.07;100.00
54808;BME280;40708;50.364;7.550;2023-03-01T07:18:41;101581.59;;;-1.98;100.00
54808;BME280;40708;50.364;7.550;2023-03-01T07:21:08;101573.31;;;-1.92;100.00
54808;BME280;40708;50.364;7.550;2023-03-01T07:23:34;101568.81;;;-1.82;100.00
54808;BME280;40708;50.364;7.550;2023-03-01T07:25:59;101566.75;;;-1.74;100.00
54808;BME280;40708;50.364;7.550;2023-03-01T07:28:26;101566.75;;;-1.61;100.00
54808;BME280;40708;50.364;7.550;2023-03-01T07:30:51;101563.34;;;-1.60;100.00
54808;BME280;40708;50.364;7.550;2023-03-01T07:33:16;101555.03;;;-1.54;100.00
54808;BME280;40708;50.364;7.550;2023-03-01T07:35:42;101554.88;;;-1.44;100.00
54808;BME280;40708;50.364;7.550;2023-03-01T07:38:07;101543.63;;;-1.43;100.00
54808;BME280;40708;50.364;7.550;2023-03-01T07:40:32;101545.16;;;-1.34;100.00
54808;BME280;40708;50.364;7.550;2023-03-01T07:42:59;101547.25;;;-1.28;100.00
54808;BME280;40708;50.364;7.550;2023-03-01T07:45:25;101546.31;;;-1.15;100.00
54808;BME280;40708;50.364;7.550;2023-03-01T07:47:51;101554.25;;;-1.01;100.00
54808;BME280;40708;50.364;7.550;2023-03-01T07:50:17;101550.25;;;-0.81;100.00
54808;BME280;40708;50.364;7.550;2023-03-01T07:52:46;101555.09;;;-0.46;100.00
54808;BME280;40708;50.364;7.550;2023-03-01T07:55:11;101553.72;;;-0.12;100.00
54808;BME280;40708;50.364;7.550;2023-03-01T07:57:37;101547.72;;;0.18;100.00
54808;BME280;40708;50.364;7.550;2023-03-01T08:00:03;101549.03;;;0.41;100.00
54808;BME280;40708;50.364;7.550;2023-03-01T08:02:29;101547.03;;;0.66;100.00
54808;BME280;40708;50.364;7.550;2023-03-01T08:04:54;101540.34;;;0.86;100.00
54808;BME280;40708;50.364;7.550;2023-03-01T08:07:19;101540.63;;;1.06;100.00
54808;BME280;40708;50.364;7.550;2023-03-01T08:09:45;101526.06;;;1.26;100.00
54808;BME280;40708;50.364;7.550;2023-03-01T08:12:10;101532.19;;;1.27;100.00
54808;BME280;40708;50.364;7.550;2023-03-01T08:14:35;101535.22;;;1.34;100.00
54808;BME280;40708;50.364;7.550;2023-03-01T08:17:00;101534.75;;;1.41;100.00
54808;BME280;40708;50.364;7.550;2023-03-01T08:19:27;101517.59;;;1.46;100.00
54808;BME280;40708;50.364;7.550;2023-03-01T08:21:53;101525.25;;;1.59;100.00
54808;BME280;40708;50.364;7.550;2023-03-01T08:24:18;101524.13;;;1.54;100.00
54808;BME280;40708;50.364;7.550;2023-03-01T08:26:43;101518.72;;;1.51;100.00
54808;BME280;40708;50.364;7.550;2023-03-01T08:29:09;101512.41;;;1.64;100.00
54808;BME280;40708;50.364;7.550;2023-03-01T08:31:36;101511.97;;;1.55;100.00
54808;BME280;40708;50.364;7.550;2023-03-01T08:34:05;101504.22;;;1.74;100.00
54808;BME280;40708;50.364;7.550;2023-03-01T08:36:35;101506.00;;;1.91;100.00
54808;BME280;40708;50.364;7.550;2023-03-01T08:39:02;101509.44;;;2.06;100.00
54808;BME280;40708;50.364;7.550;2023-03-01T08:41:27;101505.13;;;2.24;100.00
54808;BME280;40708;50.364;7.550;2023-03-01T08:43:53;101511.50;;;2.47;100.00
54808;BME280;40708;50.364;7.550;2023-03-01T08:46:23;101505.91;;;2.57;100.00
54808;BME280;40708;50.364;7.550;2023-03-01T08:48:49;101506.66;;;2.55;100.00
54808;BME280;40708;50.364;7.550;2023-03-01T08:51:17;101511.72;;;2.87;100.00
54808;BME280;40708;50.364;7.550;2023-03-01T08:53:43;101497.53;;;3.38;100.00
54808;BME280;40708;50.364;7.550;2023-03-01T08:56:09;101491.38;;;3.56;100.00
54808;BME280;40708;50.364;7.550;2023-03-01T08:58:34;101484.38;;;4.16;100.00
54808;BME280;40708;50.364;7.550;2023-03-01T09:01:00;101475.91;;;4.02;100.00
54808;BME280;40708;50.364;7.550;2023-03-01T09:03:26;101472.56;;;4.05;100.00
54808;BME280;40708;50.364;7.550;2023-03-01T09:05:52;101465.41;;;4.44;100.00
54808;BME280;40708;50.364;7.550;2023-03-01T09:08:18;101471.13;;;4.76;100.00
54808;BME280;40708;50.364;7.550;2023-03-01T09:10:44;101459.19;;;5.29;100.00
54808;BME280;40708;50.364;7.550;2023-03-01T09:13:09;101463.97;;;5.17;100.00
54808;BME280;40708;50.364;7.550;2023-03-01T09:15:37;101445.31;;;5.82;100.00
54808;BME280;40708;50.364;7.550;2023-03-01T09:18:02;101445.44;;;6.09;100.00
54808;BME280;40708;50.364;7.550;2023-03-01T09:20:28;101439.38;;;6.65;100.00
54808;BME280;40708;50.364;7.550;2023-03-01T09:22:55;101432.72;;;6.22;100.00
54808;BME280;40708;50.364;7.550;2023-03-01T09:25:21;101434.56;;;6.78;100.00
54808;BME280;40708;50.364;7.550;2023-03-01T09:27:46;101427.91;;;6.91;100.00
54808;BME280;40708;50.364;7.550;2023-03-01T09:30:12;101429.97;;;6.73;100.00
54808;BME280;40708;50.364;7.550;2023-03-01T09:32:37;101425.97;;;6.85;100.00
54808;BME280;40708;50.364;7.550;2023-03-01T09:35:03;101420.69;;;6.57;100.00
54808;BME280;40708;50.364;7.550;2023-03-01T09:37:31;101429.84;;;6.68;100.00
54808;BME280;40708;50.364;7.550;2023-03-01T09:39:56;101416.63;;;6.96;100.00
54808;BME280;40708;50.364;7.550;2023-03-01T09:42:22;101413.16;;;6.97;100.00
54808;BME280;40708;50.364;7.550;2023-03-01T09:45:11;101402.63;;;6.97;100.00
54808;BME280;40708;50.364;7.550;2023-03-01T09:47:40;101398.59;;;7.10;100.00
54808;BME280;40708;50.364;7.550;2023-03-01T09:54:57;101388.47;;;8.58;100.00
54808;BME280;40708;50.364;7.550;2023-03-01T09:57:30;101399.13;;;7.59;100.00
54808;BME280;40708;50.364;7.550;2023-03-01T10:00:14;101396.13;;;7.78;100.00
54808;BME280;40708;50.364;7.550;2023-03-01T10:02:49;101403.72;;;7.35;100.00
54808;BME280;40708;50.364;7.550;2023-03-01T10:05:37;101402.34;;;7.18;100.00
54808;BME280;40708;50.364;7.550;2023-03-01T10:08:14;101405.34;;;7.61;100.00
54808;BME280;40708;50.364;7.550;2023-03-01T10:10:47;101401.94;;;7.04;100.00
54808;BME280;40708;50.364;7.550;2023-03-01T10:13:21;101393.19;;;7.05;100.00
54808;BME280;40708;50.364;7.550;2023-03-01T10:15:57;101379.13;;;7.36;100.00
54808;BME280;40708;50.364;7.550;2023-03-01T10:18:29;101385.00;;;7.57;100.00
54808;BME280;40708;50.364;7.550;2023-03-01T10:21:02;101373.13;;;7.42;100.00
54808;BME280;40708;50.364;7.550;2023-03-01T10:23:31;101373.75;;;7.33;100.00
54808;BME280;40708;50.364;7.550;2023-03-01T10:26:13;101358.59;;;7.90;100.00
54808;BME280;40708;50.364;7.550;2023-03-01T10:28:55;101347.31;;;7.97;100.00
54808;BME280;40708;50.364;7.550;2023-03-01T10:31:27;101349.69;;;7.54;100.00
54808;BME280;40708;50.364;7.550;2023-03-01T10:34:02;101340.88;;;8.22;100.00
54808;BME280;40708;50.364;7.550;2023-03-01T10:36:32;101333.03;;;8.26;98.99
54808;BME280;40708;50.364;7.550;2023-03-01T10:38:57;101326.69;;;8.18;100.00
54808;BME280;40708;50.364;7.550;2023-03-01T10:41:25;101329.03;;;8.06;99.90
54808;BME280;40708;50.364;7.550;2023-03-01T10:43:56;101321.16;;;8.44;97.79
54808;BME280;40708;50.364;7.550;2023-03-01T10:49:13;101316.41;;;9.10;93.81
54808;BME280;40708;50.364;7.550;2023-03-01T10:51:40;101305.47;;;9.38;88.62
54808;BME280;40708;50.364;7.550;2023-03-01T10:54:16;101306.44;;;9.40;85.64
54808;BME280;40708;50.364;7.550;2023-03-01T10:56:47;101300.69;;;9.65;86.31
54808;BME280;40708;50.364;7.550;2023-03-01T10:59:42;101301.38;;;9.53;81.98
54808;BME280;40708;50.364;7.550;2023-03-01T11:02:42;101302.75;;;9.33;86.77
54808;BME280;40708;50.364;7.550;2023-03-01T11:07:49;101305.13;;;9.20;87.78
54808;BME280;40708;50.364;7.550;2023-03-01T11:10:35;101288.47;;;8.80;90.43
54808;BME280;40708;50.364;7.550;2023-03-01T11:13:13;101292.16;;;9.33;88.28
54808;BME280;40708;50.364;7.550;2023-03-01T11:15:39;101293.69;;;9.21;82.75
54808;BME280;40708;50.364;7.550;2023-03-01T11:18:21;101284.19;;;8.87;87.88
54808;BME280;40708;50.364;7.550;2023-03-01T11:20:48;101277.88;;;9.24;83.14
54808;BME280;40708;50.364;7.550;2023-03-01T11:23:15;101283.44;;;9.37;82.87
54808;BME280;40708;50.364;7.550;2023-03-01T11:25:43;101266.84;;;9.03;84.64
54808;BME280;40708;50.364;7.550;2023-03-01T11:28:14;101273.88;;;9.01;88.88
54808;BME280;40708;50.364;7.550;2023-03-01T11:30:43;101266.25;;;9.65;81.19
54808;BME280;40708;50.364;7.550;2023-03-01T11:35:53;101263.00;;;8.87;90.23
54808;BME280;40708;50.364;7.550;2023-03-01T11:38:23;101262.00;;;9.25;85.05
54808;BME280;40708;50.364;7.550;2023-03-01T11:40:54;101257.09;;;9.46;82.18
54808;BME280;40708;50.364;7.550;2023-03-01T11:43:36;101248.66;;;8.76;80.75
54808;BME280;40708;50.364;7.550;2023-03-01T11:54:16;101244.00;;;8.64;79.35
54808;BME280;40708;50.364;7.550;2023-03-01T11:56:47;101234.63;;;8.38;79.02
54808;BME280;40708;50.364;7.550;2023-03-01T12:02:07;101237.22;;;7.99;78.98
54808;BME280;40708;50.364;7.550;2023-03-01T12:04:58;101235.03;;;8.17;82.11
54808;BME280;40708;50.364;7.550;2023-03-01T12:07:48;101232.69;;;8.29;82.23
54808;BME280;40708;50.364;7.550;2023-03-01T12:11:01;101226.38;;;8.65;76.76
54808;BME280;40708;50.364;7.550;2023-03-01T12:13:54;101219.25;;;9.04;72.75
54808;BME280;40708;50.364;7.550;2023-03-01T12:16:40;101217.31;;;8.94;72.00
54808;BME280;40708;50.364;7.550;2023-03-01T12:19:40;101215.94;;;8.69;69.56
54808;BME280;40708;50.364;7.550;2023-03-01T12:22:23;101202.34;;;8.97;67.45
54808;BME280;40708;50.364;7.550;2023-03-01T12:44:09;101169.03;;;8.62;68.77
54808;BME280;40708;50.364;7.550;2023-03-01T12:46:49;101154.19;;;8.70;67.80
54808;BME280;40708;50.364;7.550;2023-03-01T12:49:28;101151.22;;;8.98;65.12
54808;BME280;40708;50.364;7.550;2023-03-01T12:52:00;101146.50;;;8.84;64.57
54808;BME280;40708;50.364;7.550;2023-03-01T12:54:30;101142.63;;;9.12;64.42
54808;BME280;40708;50.364;7.550;2023-03-01T12:56:58;101137.31;;;9.10;62.07
54808;BME280;40708;50.364;7.550;2023-03-01T13:00:00;101131.13;;;9.10;62.32
54808;BME280;40708;50.364;7.550;2023-03-01T13:02:58;101128.91;;;8.86;60.05
54808;BME280;40708;50.364;7.550;2023-03-01T13:05:42;101130.09;;;9.02;60.11
54808;BME280;40708;50.364;7.550;2023-03-01T13:08:22;101111.50;;;9.52;59.27
54808;BME280;40708;50.364;7.550;2023-03-01T13:10:58;101106.91;;;9.41;57.14
54808;BME280;40708;50.364;7.550;2023-03-01T13:13:27;101116.19;;;9.15;56.75
54808;BME280;40708;50.364;7.550;2023-03-01T13:15:53;101111.69;;;9.08;57.82
54808;BME280;40708;50.364;7.550;2023-03-01T13:20:47;101110.06;;;9.17;56.90
54808;BME280;40708;50.364;7.550;2023-03-01T13:23:13;101107.56;;;9.26;57.13
54808;BME280;40708;50.364;7.550;2023-03-01T13:26:16;101113.81;;;9.31;53.36
54808;BME280;40708;50.364;7.550;2023-03-01T13:28:56;101111.91;;;9.23;52.70
54808;BME280;40708;50.364;7.550;2023-03-01T13:33:54;101100.41;;;9.21;51.11
54808;BME280;40708;50.364;7.550;2023-03-01T13:41:50;101084.81;;;9.37;51.40
54808;BME280;40708;50.364;7.550;2023-03-01T13:46:50;101081.16;;;9.32;50.10
54808;BME280;40708;50.364;7.550;2023-03-01T13:49:19;101074.31;;;9.46;49.82
54808;BME280;40708;50.364;7.550;2023-03-01T13:51:47;101068.38;;;9.63;50.10